Flight Track Log - Related Links

Times and Time Zones

All times are in EDT time to prevent confusion due to time zone crossing. See the N400DR flight status page for this flight to view local times or setup timezone preferences in your user account.

Time Position Orientation Groundspeed Altitude Reporting Facility
EDT Latitude Longitude Course Direction KTS MPH feet Rate Location/Type
Sat 08:01:08 AM 40.8864 -81.4819 180° South 122 140 2,600  Level Indianapolis Center
Sat 08:02:10 AM 40.8489 -81.4819 180° South 133 153 3,700 1,122 Climbing Indianapolis Center
Sat 08:03:11 AM 40.8086 -81.4869 185° South 139 160 4,900 1,180 Climbing Indianapolis Center
Sat 08:04:12 AM 40.7708 -81.4914 185° South 139 160 6,100 1,268 Climbing Indianapolis Center
Sat 08:05:14 AM 40.7333 -81.4961 185° South 138 159 7,500 1,220 Climbing Indianapolis Center
Sat 08:06:00 AM 40.6163 -81.4540 180° South  Level Estimated
Sat 08:06:15 AM 40.6964 -81.5003 185° South 135 155 8,600  Level Indianapolis Center
Sat 08:07:16 AM 40.6569 -81.5064 187° South 136 157 9,700 1,073 Climbing Indianapolis Center
Sat 08:08:18 AM 40.6178 -81.5117 186° South 137 158 10,800 1,024 Climbing Indianapolis Center
Sat 08:09:19 AM 40.5753 -81.5164 185° South 146 168 11,800 590 Climbing Indianapolis Center
Sat 08:10:20 AM 40.5289 -81.5222 185° South 158 182 12,000 98 Climbing Indianapolis Center
Sat 08:11:22 AM 40.4728 -81.5300 186° South 192 221 12,000  Level Indianapolis Center
Sat 08:12:23 AM 40.4189 -81.5356 184° South 194 223 12,000  Level Indianapolis Center
Sat 08:13:24 AM 40.3675 -81.5433 187° South 190 219 12,000  Level Indianapolis Center
Sat 08:14:26 AM 40.3147 -81.5494 185° South 188 216 12,000  Level Indianapolis Center
Sat 08:15:27 AM 40.2633 -81.5539 184° South 187 215 12,000  Level Indianapolis Center
Sat 08:16:28 AM 40.2111 -81.5614 186° South 187 215 12,000  Level Indianapolis Center
Sat 08:17:30 AM 40.1500 -81.5672 184° South 187 215 12,000  Level Indianapolis Center
Sat 08:18:31 AM 40.0975 -81.5753 187° South 187 215 12,000  Level Indianapolis Center
Sat 08:19:32 AM 40.0439 -81.5814 185° South 187 215 12,000  Level Indianapolis Center
Sat 08:20:34 AM 39.9914 -81.5892 186° South 188 216 12,000  Level Indianapolis Center
Sat 08:21:35 AM 39.9408 -81.5942 184° South 188 216 12,000  Level Indianapolis Center
Sat 08:22:37 AM 39.8894 -81.6003 185° South 187 215 12,000  Level Indianapolis Center
Sat 08:23:38 AM 39.8386 -81.6061 185° South 185 213 12,000  Level Indianapolis Center
Sat 08:24:39 AM 39.7881 -81.6125 186° South 185 213 12,000  Level Indianapolis Center
Sat 08:25:41 AM 39.7381 -81.6181 185° South 182 209 12,000  Level Indianapolis Center
Sat 08:26:42 AM 39.6800 -81.6256 186° South 181 208 12,000  Level Indianapolis Center
Sat 08:27:44 AM 39.6328 -81.6314 185° South 177 204 12,000  Level Indianapolis Center
Sat 08:28:45 AM 39.5864 -81.6364 185° South 171 197 12,000  Level Indianapolis Center
Sat 08:29:47 AM 39.5386 -81.6425 186° South 171 197 12,000  Level Indianapolis Center
Sat 08:30:48 AM 39.4897 -81.6489 186° South 172 198 12,000  Level Indianapolis Center
Sat 08:31:50 AM 39.4408 -81.6542 185° South 173 199 12,000  Level Indianapolis Center
Sat 08:32:51 AM 39.3917 -81.6608 186° South 173 199 12,000  Level Indianapolis Center
Sat 08:33:52 AM 39.3425 -81.6664 185° South 174 200 12,000  Level Indianapolis Center
Sat 08:34:54 AM 39.2825 -81.6742 186° South 175 201 12,000  Level Indianapolis Center
Sat 08:35:55 AM 39.2325 -81.6800 185° South 176 203 12,000  Level Indianapolis Center
Sat 08:36:57 AM 39.1833 -81.6853 185° South 176 203 12,000  Level Indianapolis Center
Sat 08:37:58 AM 39.1333 -81.6911 185° South 176 203 12,000  Level Indianapolis Center
Sat 08:39:00 AM 39.0839 -81.6969 185° South 176 203 12,000  Level Indianapolis Center
Sat 08:40:01 AM 39.0344 -81.7031 185° South 176 203 12,000  Level Indianapolis Center
Sat 08:41:03 AM 38.9847 -81.7086 185° South 176 203 12,000  Level Indianapolis Center
Sat 08:42:04 AM 38.9350 -81.7144 185° South 176 203 12,000  Level Indianapolis Center
Sat 08:43:06 AM 38.8764 -81.7217 185° South 177 204 12,000  Level Indianapolis Center
Sat 08:44:07 AM 38.8264 -81.7275 185° South 177 204 12,000  Level Indianapolis Center
Sat 08:45:09 AM 38.7769 -81.7333 185° South 177 204 12,000  Level Indianapolis Center
Sat 08:46:11 AM 38.7278 -81.7386 185° South 177 204 12,000  Level Indianapolis Center
Sat 08:47:12 AM 38.6789 -81.7447 186° South 177 204 12,000  Level Indianapolis Center
Sat 08:48:14 AM 38.6289 -81.7500 185° South 178 205 12,000  Level Indianapolis Center
Sat 08:49:15 AM 38.5786 -81.7572 186° South 178 205 12,000  Level Indianapolis Center
Sat 08:50:17 AM 38.5181 -81.7636 185° South 180 207 12,000  Level Indianapolis Center
Sat 08:51:19 AM 38.4675 -81.7703 186° South 180 207 12,000  Level Indianapolis Center
Sat 08:52:20 AM 38.4175 -81.7753 184° South 180 207 12,000  Level Indianapolis Center
Sat 08:53:22 AM 38.3675 -81.7806 185° South 180 207 12,000  Level Indianapolis Center
Sat 08:54:24 AM 38.3175 -81.7869 186° South 180 207 12,000  Level Indianapolis Center
Sat 08:55:26 AM 38.2672 -81.7931 185° South 180 207 12,000  Level Indianapolis Center
Sat 08:56:27 AM 38.2156 -81.7986 185° South 181 208 12,000  Level Indianapolis Center
Sat 08:57:29 AM 38.1553 -81.8058 185° South 181 208 12,000  Level Indianapolis Center
Sat 08:58:31 AM 38.1047 -81.8122 186° South 181 208 12,000  Level Indianapolis Center
Sat 08:59:32 AM 38.0536 -81.8186 186° South 181 208 12,000  Level Indianapolis Center
Sat 09:00:34 AM 38.0033 -81.8231 184° South 181 208 12,000  Level Indianapolis Center
Sat 09:01:36 AM 37.9528 -81.8300 186° South 182 209 12,000  Level Indianapolis Center
Sat 09:02:38 AM 37.9022 -81.8347 184° South 182 209 12,000  Level Indianapolis Center
Sat 09:03:40 AM 37.8514 -81.8408 185° South 182 209 12,000  Level Indianapolis Center
Sat 09:04:41 AM 37.7928 -81.8486 186° South 182 209 12,000  Level Indianapolis Center
Sat 09:05:43 AM 37.7414 -81.8542 185° South 182 209 12,000  Level Indianapolis Center
Sat 09:06:45 AM 37.6897 -81.8578 183° South 182 209 12,000  Level Indianapolis Center
Sat 09:07:47 AM 37.6389 -81.8669 188° South 183 211 12,000  Level Indianapolis Center
Sat 09:08:49 AM 37.5875 -81.8700 183° South 184 212 12,000  Level Indianapolis Center
Sat 09:09:50 AM 37.5269 -81.8778 186° South 184 212 12,000  Level Indianapolis Center
Sat 09:10:52 AM 37.4758 -81.8833 185° South 184 212 12,000  Level Indianapolis Center
Sat 09:11:54 AM 37.4242 -81.8883 184° South 184 212 12,000  Level Indianapolis Center
Sat 09:12:56 AM 37.3739 -81.8953 186° South 184 212 12,000  Level Indianapolis Center
Sat 09:13:58 AM 37.3233 -81.9006 185° South 184 212 12,000  Level Indianapolis Center
Sat 09:14:59 AM 37.2728 -81.9047 184° South 184 212 12,000  Level Indianapolis Center
Sat 09:16:01 AM 37.2225 -81.9125 187° South 183 211 12,000  Level Indianapolis Center
Sat 09:17:03 AM 37.1636 -81.9181 184° South 183 211 12,000  Level Indianapolis Center
Sat 09:18:05 AM 37.1136 -81.9244 186° South 182 209 12,000  Level Indianapolis Center
Sat 09:19:06 AM 37.0636 -81.9297 185° South 182 209 12,000  Level Indianapolis Center
Sat 09:20:08 AM 37.0131 -81.9353 185° South 182 209 12,000  Level Indianapolis Center
Sat 09:21:10 AM 36.9608 -81.9414 185° South 182 209 12,000  Level Indianapolis Center
Sat 09:22:12 AM 36.9086 -81.9475 185° South 183 211 12,000  Level Indianapolis Center
Sat 09:23:13 AM 36.8581 -81.9522 184° South 183 211 12,000  Level Indianapolis Center
Sat 09:24:22 AM 36.7956 -81.9597 185° South 189 217 12,000  Level Atlanta Center
Sat 09:25:22 AM 36.7458 -81.9689 188° South 189 217 12,000  Level Atlanta Center
Sat 09:27:20 AM 36.6453 -81.9772 184° South 184 212 12,000  Level Indianapolis Center
Sat 09:28:22 AM 36.5953 -81.9825 185° South 182 209 12,000  Level Indianapolis Center
Sat 09:29:24 AM 36.5456 -81.9869 184° South 181 208 12,000  Level Indianapolis Center
Sat 09:30:22 AM 36.4958 -81.9933 186° South 177 204 12,000  Level Atlanta Center
Sat 09:31:22 AM 36.4417 -82.0000 186° South 177 204 12,000  Level Atlanta Center
Sat 09:32:22 AM 36.3919 -82.0064 186° South 177 204 12,000  Level Atlanta Center
Sat 09:33:22 AM 36.3439 -82.0100 183° South 177 204 12,000  Level Atlanta Center
Sat 09:34:22 AM 36.2939 -82.0167 186° South 182 209 12,000  Level Atlanta Center
Sat 09:35:22 AM 36.2544 -82.0200 184° South 182 209 12,000  Level Atlanta Center
Sat 09:36:22 AM 36.1983 -82.0267 185° South 182 209 12,000  Level Atlanta Center
Sat 09:37:22 AM 36.1461 -82.0331 186° South 182 209 12,000  Level Atlanta Center
Sat 09:38:22 AM 36.0961 -82.0394 186° South 182 209 12,000  Level Atlanta Center
Sat 09:39:22 AM 36.0461 -82.0433 184° South 182 209 12,000  Level Atlanta Center
Sat 09:40:22 AM 35.9983 -82.0497 186° South 177 204 12,000  Level Atlanta Center
Sat 09:41:22 AM 35.9483 -82.0561 186° South 177 204 12,000  Level Atlanta Center
Sat 09:42:22 AM 35.9025 -82.0597 184° South 177 204 12,000  Level Atlanta Center
Sat 09:43:22 AM 35.8547 -82.0633 184° South 177 204 12,000  Level Atlanta Center
Sat 09:44:22 AM 35.8025 -82.0697 186° South 177 204 12,000  Level Atlanta Center
Sat 09:45:22 AM 35.7506 -82.0786 188° South 183 211 12,000  Level Atlanta Center
Sat 09:46:22 AM 35.7028 -82.0825 184° South 183 211 12,000  Level Atlanta Center
Sat 09:47:22 AM 35.6506 -82.0889 186° South 183 211 12,000  Level Atlanta Center
Sat 09:48:22 AM 35.6028 -82.0925 184° South 178 205 12,000  Level Atlanta Center
Sat 09:49:22 AM 35.5547 -82.0986 186° South 178 205 12,000  Level Atlanta Center
Sat 09:50:22 AM 35.5047 -82.1050 186° South 178 205 12,000  Level Atlanta Center
Sat 09:51:22 AM 35.4569 -82.1086 184° South 178 205 12,000  Level Atlanta Center
Sat 09:52:22 AM 35.4089 -82.1150 186° South 178 205 12,000  Level Atlanta Center
Sat 09:53:22 AM 35.3592 -82.1211 186° South 178 205 12,000  Level Atlanta Center
Sat 09:54:22 AM 35.3111 -82.1247 184° South 178 205 12,000  Level Atlanta Center
Sat 09:55:22 AM 35.2550 -82.1311 185° South 178 205 12,000  Level Atlanta Center
Sat 09:56:22 AM 35.2089 -82.1347 184° South 178 205 12,000  Level Atlanta Center
Sat 09:57:22 AM 35.1592 -82.1411 186° South 178 205 12,000  Level Atlanta Center
Sat 09:58:22 AM 35.1089 -82.1447 183° South 178 205 12,000  Level Atlanta Center
Sat 09:59:22 AM 35.0633 -82.1508 186° South 178 205 12,000  Level Atlanta Center
Sat 10:00:22 AM 35.0131 -82.1544 183° South 178 205 12,000  Level Atlanta Center
Sat 10:01:22 AM 34.9653 -82.1631 188° South 178 205 12,000  Level Atlanta Center
Sat 10:02:22 AM 34.9133 -82.1669 184° South 178 205 12,000  Level Atlanta Center
Sat 10:03:22 AM 34.8631 -82.1706 183° South 178 205 12,000  Level Atlanta Center
Sat 10:04:22 AM 34.8153 -82.1767 186° South 178 205 12,000  Level Atlanta Center
Sat 10:05:22 AM 34.7631 -82.1803 183° South 178 205 12,000  Level Atlanta Center
Sat 10:06:22 AM 34.7133 -82.1892 188° South 178 205 12,000  Level Atlanta Center
Sat 10:07:22 AM 34.6631 -82.1928 183° South 178 205 12,000  Level Atlanta Center
Sat 10:08:22 AM 34.6111 -82.1964 183° South 178 205 12,000  Level Atlanta Center
Sat 10:09:22 AM 34.5611 -82.2025 186° South 178 205 12,000  Level Atlanta Center
Sat 10:10:22 AM 34.5131 -82.2086 186° South 178 205 12,000  Level Atlanta Center
Sat 10:11:22 AM 34.4611 -82.2147 186° South 178 205 12,000  Level Atlanta Center
Sat 10:12:22 AM 34.4131 -82.2183 184° South 178 205 12,000  Level Atlanta Center
Sat 10:13:22 AM 34.3631 -82.2244 186° South 178 205 12,000  Level Atlanta Center
Sat 10:14:22 AM 34.3172 -82.2281 184° South 178 205 12,000 -50 Level Atlanta Center
Sat 10:15:22 AM 34.2672 -82.2317 183° South 178 205 11,900  Descending Atlanta Center
Sat 10:16:22 AM 34.2172 -82.2375 186° South 178 205 12,000 50 Climbing Atlanta Center
Sat 10:17:22 AM 34.1653 -82.2436 186° South 178 205 12,000  Level Atlanta Center
Sat 10:18:22 AM 34.1150 -82.2472 183° South 178 205 12,000 -50 Level Atlanta Center
Sat 10:19:22 AM 34.0650 -82.2533 186° South 178 205 11,900 -50 Descending Atlanta Center
Sat 10:20:22 AM 34.0131 -82.2594 186° South 178 205 11,900 50 Level Atlanta Center
Sat 10:21:22 AM 33.9650 -82.2631 184° South 178 205 12,000 50 Climbing Atlanta Center
Sat 10:22:22 AM 33.9150 -82.2692 186° South 178 205 12,000 -50 Level Atlanta Center
Sat 10:23:22 AM 33.8631 -82.2725 183° South 178 205 11,900 -50 Descending Atlanta Center
Sat 10:24:22 AM 33.8131 -82.2811 188° South 178 205 11,900 50 Level Atlanta Center
Sat 10:25:22 AM 33.7589 -82.2997 196° South 192 221 12,000  Climbing Atlanta Center
Sat 10:26:22 AM 33.7153 -82.3106 192° South 176 203 11,900  Descending Atlanta Center
Sat 10:27:22 AM 33.6653 -82.3267 195° South 176 203 12,000  Climbing Atlanta Center
Sat 10:28:22 AM 33.6217 -82.3400 194° South 175 201 11,900 -50 Descending Atlanta Center
Sat 10:29:22 AM 33.5636 -82.3561 193° South 193 222 11,900 50 Level Atlanta Center
Sat 10:30:22 AM 33.5178 -82.3719 196° South 178 205 12,000  Climbing Atlanta Center
Sat 10:31:22 AM 33.4700 -82.3853 193° South 176 203 11,900  Descending Atlanta Center
Sat 10:32:22 AM 33.4222 -82.3986 193° South 169 194 12,000 50 Climbing Atlanta Center
Sat 10:33:22 AM 33.3786 -82.4119 194° South 176 203 12,000  Level Atlanta Center
Sat 10:34:22 AM 33.3308 -82.4253 193° South 181 208 12,000 -50 Level Atlanta Center
Sat 10:35:22 AM 33.2889 -82.4211 175° South 175 201 11,900  Descending Atlanta Center
Sat 10:36:22 AM 33.2408 -82.4244 183° South 175 201 12,000 50 Climbing Atlanta Center
Sat 10:37:22 AM 33.1931 -82.4278 183° South 180 207 12,000 -50 Level Atlanta Center
Sat 10:38:22 AM 33.1450 -82.4286 181° South 180 207 11,900  Descending Atlanta Center
Sat 10:39:22 AM 33.0969 -82.4294 181° South 180 207 12,000 50 Climbing Atlanta Center
Sat 10:40:22 AM 33.0469 -82.4331 183° South 180 207 12,000 -50 Level Atlanta Center
Sat 10:41:22 AM 32.9989 -82.4364 183° South 180 207 11,900  Descending Atlanta Center
Sat 10:42:22 AM 32.9531 -82.4397 183° South 180 207 12,000  Climbing Atlanta Center
Sat 10:43:22 AM 32.9050 -82.4406 181° South 175 201 11,900  Descending Atlanta Center
Sat 10:44:22 AM 32.8572 -82.4414 181° South 175 201 12,000 50 Climbing Atlanta Center
Sat 10:45:22 AM 32.8092 -82.4447 183° South 175 201 12,000  Level Atlanta Center
Sat 10:46:22 AM 32.7633 -82.4481 183° South 175 201 12,000  Level Atlanta Center
Sat 10:47:22 AM 32.7153 -82.4489 181° South 175 201 12,000  Level Atlanta Center
Sat 10:49:39 AM 32.6042 -82.4561 183° South 176 203 12,000  Level Jacksonville Center
Sat 10:50:39 AM 32.5561 -82.4564 180° South 176 203 12,000  Level Jacksonville Center
Sat 10:51:39 AM 32.5081 -82.4567 180° South 176 203 12,000 -50 Level Jacksonville Center
Sat 10:52:39 AM 32.4622 -82.4567 180° South 176 203 11,900  Descending Jacksonville Center
Sat 10:53:39 AM 32.4183 -82.4494 172° South 176 203 12,000 50 Climbing Jacksonville Center
Sat 10:54:39 AM 32.3703 -82.4400 171° South 181 208 12,000  Level Jacksonville Center
Sat 10:55:39 AM 32.3222 -82.4328 173° South 176 203 12,000  Level Jacksonville Center
Sat 10:56:39 AM 32.2764 -82.4256 172° South 176 203 12,000  Level Jacksonville Center
Sat 10:57:39 AM 32.2303 -82.4186 173° South 176 203 12,000  Level Jacksonville Center
Sat 10:58:39 AM 32.1822 -82.4089 170° South 181 208 12,000  Level Jacksonville Center
Sat 10:59:39 AM 32.1364 -82.4019 173° South 181 208 12,000  Level Jacksonville Center
Sat 11:00:39 AM 32.0883 -82.3922 170° South 181 208 12,000  Level Jacksonville Center
Sat 11:01:39 AM 32.0403 -82.3853 173° South 181 208 12,000  Level Jacksonville Center
Sat 11:02:39 AM 31.9942 -82.3781 172° South 181 208 12,000  Level Jacksonville Center
Sat 11:03:39 AM 31.9483 -82.3661 168° South 181 208 12,000 -50 Level Jacksonville Center
Sat 11:04:39 AM 31.9003 -82.3592 173° South 181 208 11,900  Descending Jacksonville Center
Sat 11:05:39 AM 31.8500 -82.3519 173° South 181 208 12,000 50 Climbing Jacksonville Center
Sat 11:06:39 AM 31.8042 -82.3425 170° South 181 208 12,000  Level Jacksonville Center
Sat 11:07:39 AM 31.7561 -82.3356 173° South 181 208 12,000  Level Jacksonville Center
Sat 11:08:39 AM 31.7100 -82.3283 172° South 181 208 12,000 -50 Level Jacksonville Center
Sat 11:09:39 AM 31.6578 -82.3189 171° South 181 208 11,900 -50 Descending Jacksonville Center
Sat 11:10:39 AM 31.6036 -82.3119 174° South 181 208 11,900  Level Jacksonville Center
Sat 11:11:39 AM 31.5533 -82.3050 173° South 181 208 11,900  Level Jacksonville Center
Sat 11:12:39 AM 31.5033 -82.2956 171° South 186 214 11,900  Level Jacksonville Center
Sat 11:13:39 AM 31.4511 -82.2861 171° South 186 214 11,900  Level Jacksonville Center
Sat 11:14:39 AM 31.3989 -82.2792 174° South 191 220 11,900  Level Jacksonville Center
Sat 11:15:39 AM 31.3486 -82.2675 169° South 191 220 11,900  Level Jacksonville Center
Sat 11:16:39 AM 31.2964 -82.2606 174° South 191 220 11,900  Level Jacksonville Center
Sat 11:17:39 AM 31.2442 -82.2486 169° South 196 226 11,900  Level Jacksonville Center
Sat 11:18:39 AM 31.1897 -82.2417 174° South 196 226 11,900  Level Jacksonville Center
Sat 11:19:25 AM 31.1522 -82.2347 171° South 191 220 11,900  Level Jacksonville Center
Sat 11:19:39 AM 31.1397 -82.2325 171° South 196 226 11,900  Level Jacksonville Center
Sat 11:19:50 AM 31.1314 -82.2325 180° South 190 219 11,900  Level Jacksonville Center
Sat 11:20:39 AM 31.0853 -82.2256 173° South 196 226 11,900  Level Jacksonville Center
Sat 11:20:45 AM 31.0833 -82.2231 132° Southeast 190 219 11,900  Level Jacksonville Center
Sat 11:21:39 AM 31.0331 -82.2136 171° South 196 226 11,900 98 Level Jacksonville Center
Sat 11:21:46 AM 31.0267 -82.2114 163° South 190 219 12,000  Climbing Jacksonville Center
Sat 11:22:39 AM 30.9808 -82.2067 175° South 196 226 11,900  Descending Jacksonville Center
Sat 11:22:47 AM 30.9744 -82.2044 163° South 191 220 12,000  Climbing Jacksonville Center
Sat 11:23:39 AM 30.9286 -82.1975 173° South 196 226 11,900  Descending Jacksonville Center
Sat 11:23:48 AM 30.9203 -82.1953 167° South 194 223 12,000  Climbing Jacksonville Center
Sat 11:24:39 AM 30.8722 -82.1906 175° South 201 231 11,900  Descending Jacksonville Center
Sat 11:24:49 AM 30.8658 -82.1833 136° Southeast 195 224 12,000  Climbing Jacksonville Center
Sat 11:25:39 AM 30.8200 -82.1789 175° South 201 231 11,900 98 Descending Jacksonville Center
Sat 11:25:50 AM 30.8075 -82.1767 171° South 196 226 12,100 400 Climbing Jacksonville Center
Sat 11:26:39 AM 30.7678 -82.1722 175° South 201 231 12,300 290 Climbing Jacksonville Center
Sat 11:26:52 AM 30.7572 -82.1697 168° South 187 215 12,400 405 Climbing Jacksonville Center
Sat 11:27:53 AM 30.7069 -82.1606 171° South 185 213 12,800 280 Climbing Jacksonville Center
Sat 11:28:39 AM 30.6694 -82.1536 171° South 196 226 12,900 197 Climbing Jacksonville Center
Sat 11:28:54 AM 30.6547 -82.1511 172° South 181 208 13,000 79 Climbing Jacksonville Center
Sat 11:29:55 AM 30.5983 -82.1419 172° South 195 224 13,000  Level Jacksonville Center
Sat 11:31:02 AM 30.5442 -82.1328 172° South 196 226 13,000  Level Jacksonville Center
Sat 11:32:03 AM 30.4856 -82.1236 172° South 198 228 13,000  Level Jacksonville Center
Sat 11:33:04 AM 30.4292 -82.1144 172° South 196 226 13,000  Level Jacksonville Center
Sat 11:34:06 AM 30.3747 -82.1075 174° South 197 227 13,000  Level Jacksonville Center
Sat 11:35:06 AM 30.3203 -82.0983 172° South 197 227 13,000 -52 Level Jacksonville Center
Sat 11:36:02 AM 30.2703 -82.0869 169° South 197 227 12,900  Descending Jacksonville Center
Sat 11:37:03 AM 30.2139 -82.0778 172° South 196 226 13,000 49 Climbing Jacksonville Center
Sat 11:38:04 AM 30.1575 -82.0708 174° South 196 226 13,000 -83 Level Jacksonville Center
Sat 11:38:15 AM 30.1469 -82.0664 160° South 200 230 12,900  Descending Jacksonville Center
Sat 11:39:06 AM 30.1050 -82.0619 175° South 197 227 13,000  Climbing Jacksonville Center
Sat 11:39:15 AM 30.0906 -82.0572 164° South 200 230 12,900  Descending Jacksonville Center
Sat 11:40:07 AM 30.0508 -82.0503 171° South 197 227 13,000  Climbing Jacksonville Center
Sat 11:40:15 AM 30.0361 -82.0503 180° South 200 230 12,900  Descending Jacksonville Center
Sat 11:41:09 AM 29.9903 -82.0411 170° South 197 227 13,000  Climbing Jacksonville Center
Sat 11:41:15 AM 29.9819 -82.0414 182° South 200 230 12,900  Descending Jacksonville Center
Sat 11:42:10 AM 29.9358 -82.0344 173° South 197 227 13,000  Climbing Jacksonville Center
Sat 11:42:15 AM 29.9275 -82.0322 167° South 200 230 12,900 -92 Descending Jacksonville Center
Sat 11:43:15 AM 29.8753 -82.0256 174° South 200 230 12,900 51 Level Jacksonville Center
Sat 11:44:13 AM 29.8250 -82.0139 169° South 198 228 13,000  Climbing Jacksonville Center
Sat 11:44:15 AM 29.8208 -82.0164 207° Southwest 200 230 12,900 -97 Descending Jacksonville Center
Sat 11:45:15 AM 29.7667 -82.0072 172° South 200 230 12,900 92 Level Jacksonville Center
Sat 11:45:20 AM 29.7644 -82.0072 180° South 196 226 13,000  Climbing Jacksonville Center
Sat 11:46:15 AM 29.7122 -81.9958 169° South 200 230 12,900 -98 Descending Jacksonville Center
Sat 11:46:21 AM 29.7100 -81.9983 224° Southwest 194 223 12,900  Level Jacksonville Center
Sat 11:47:15 AM 29.6661 -81.9914 172° South 200 230 12,900 109 Level Jacksonville Center
Sat 11:47:16 AM 29.6600 -81.9892 162° South 194 223 13,000  Climbing Jacksonville Center
Sat 11:48:15 AM 29.6139 -81.9825 173° South 200 230 12,900  Descending Jacksonville Center
Sat 11:48:17 AM 29.6056 -81.9800 165° South 194 223 13,000  Climbing Jacksonville Center
Sat 11:49:15 AM 29.5575 -81.9733 173° South 199 229 12,900 -51 Descending Jacksonville Center
Sat 11:50:15 AM 29.5075 -81.9642 171° South 210 242 12,900  Level Jacksonville Center
Sat 11:51:15 AM 29.4531 -81.9553 172° South 210 242 12,900  Level Jacksonville Center
Sat 11:52:15 AM 29.4008 -81.9464 172° South 204 235 12,900  Level Jacksonville Center
Sat 11:53:15 AM 29.3486 -81.9397 174° South 199 229 12,900  Level Jacksonville Center
Sat 11:54:15 AM 29.2942 -81.9306 172° South 199 229 12,900  Level Jacksonville Center
Sat 11:55:15 AM 29.2419 -81.9217 172° South 199 229 12,900  Level Jacksonville Center
Sat 11:56:15 AM 29.1833 -81.9103 170° South 199 229 12,900  Level Jacksonville Center
Sat 11:57:15 AM 29.1311 -81.8989 169° South 199 229 12,900  Level Jacksonville Center
Sat 11:58:15 AM 29.0767 -81.8828 165° South 199 229 12,900  Level Jacksonville Center
Sat 11:59:15 AM 29.0286 -81.8572 155° Southeast 199 229 12,900  Level Jacksonville Center
Sat 12:00:15 PM 28.9783 -81.8317 156° South 199 229 12,900  Level Jacksonville Center
Sat 12:01:15 PM 28.9322 -81.8083 156° South 199 229 12,900  Level Jacksonville Center
Sat 12:02:15 PM 28.8778 -81.8042 176° South 197 227 12,900  Level Jacksonville Center
Sat 12:03:15 PM 28.8256 -81.8047 181° South 192 221 12,900  Level Jacksonville Center
Sat 12:04:15 PM 28.7714 -81.8053 181° South 192 221 12,900  Level Jacksonville Center
Sat 12:05:15 PM 28.7214 -81.8036 178° South 192 221 12,900  Level Jacksonville Center
Sat 12:06:15 PM 28.6669 -81.8089 185° South 192 221 12,900  Level Jacksonville Center
Sat 12:07:15 PM 28.6167 -81.7833 156° South 192 221 12,900 45 Level Jacksonville Center
Sat 12:08:29 PM 28.5500 -81.7500 156° South 199 229 13,000 45 Climbing Orlando TRACON
Sat 12:09:29 PM 28.5000 -81.7167 150° Southeast 200 230 13,000  Level Orlando TRACON
Sat 12:10:35 PM 28.4500 -81.6833 150° Southeast 199 229 13,000  Level Orlando TRACON
Sat 12:11:35 PM 28.4000 -81.6667 164° South 203 234 13,000  Level Orlando TRACON
Sat 12:12:36 PM 28.3500 -81.6333 150° Southeast 199 229 13,000  Level Orlando TRACON
Sat 12:13:42 PM 28.2833 -81.6000 156° South 201 231 13,000  Level Orlando TRACON
Sat 12:14:30 PM 28.2500 -81.5833 156° South 201 231 13,000  Level Orlando TRACON
Sat 12:15:30 PM 28.2000 -81.5667 164° South 200 230 13,000  Level Orlando TRACON
Sat 12:16:42 PM 28.1333 -81.5333 156° South 200 230 13,000 -29 Level Orlando TRACON
Sat 12:18:55 PM 28.0303 -81.4717 152° Southeast 203 234 12,900 -31 Descending Miami Center
Sat 12:19:56 PM 27.9839 -81.4886 198° South 173 199 12,900 -99 Level Miami Center
Sat 12:20:56 PM 27.9336 -81.4983 190° South 173 199 12,700 -400 Descending Miami Center
Sat 12:21:56 PM 27.8811 -81.5056 187° South 186 214 12,100 -600 Descending Miami Center
Sat 12:22:56 PM 27.8247 -81.5125 186° South 197 227 11,500 -555 Descending Miami Center
Sat 12:23:55 PM 27.7700 -81.5219 189° South 202 232 11,000 -550 Descending Miami Center
Sat 12:24:56 PM 27.7156 -81.5292 187° South 202 232 10,400 -600 Descending Miami Center
Sat 12:25:55 PM 27.6589 -81.5386 188° South 202 232 9,800 -600 Descending Miami Center
Sat 12:26:56 PM 27.6064 -81.5481 189° South 202 232 9,200 -550 Descending Miami Center
Sat 12:27:55 PM 27.5519 -81.5578 189° South 202 232 8,700 -550 Descending Miami Center
Sat 12:28:56 PM 27.4972 -81.5672 189° South 202 232 8,100 -595 Descending Miami Center
Sat 12:29:56 PM 27.4428 -81.5742 186° South 202 232 7,500 -641 Descending Miami Center
Sat 12:31:07 PM 27.3925 -81.5817 188° South 202 232 6,700 -733 Descending Miami Center
Sat 12:32:07 PM 27.3253 -81.5950 190° South 202 232 5,900 -744 Descending Miami Center
Sat 12:33:08 PM 27.2706 -81.6044 189° South 202 232 5,200 -446 Descending Miami Center
Sat 12:34:08 PM 27.2161 -81.6117 187° South 202 232 5,000 -101 Descending Miami Center
Sat 12:35:07 PM 27.1764 -81.6169 187° South 197 227 5,000  Level Miami Center
Sat 12:36:07 PM 27.1133 -81.6261 187° South 197 227 5,000  Level Miami Center
Sat 12:37:08 PM 27.0650 -81.6358 190° South 191 220 5,000 -50 Level Miami Center
Sat 12:38:08 PM 27.0122 -81.6522 195° South 184 212 4,900 -403 Descending Miami Center
Sat 12:39:07 PM 26.9636 -81.6758 203° Southwest 185 213 4,200 -700 Descending Miami Center
Sat 12:40:08 PM 26.9147 -81.7017 205° Southwest 190 219 3,500 -595 Descending Miami Center
Sat 12:41:08 PM 26.8681 -81.7231 202° Southwest 195 224 3,000 -250 Descending Miami Center
Sat 12:42:08 PM 26.8233 -81.7469 205° Southwest 185 213 3,000 -250 Level Miami Center
Sat 12:43:08 PM 26.7808 -81.7683 204° Southwest 179 206 2,500 -400 Descending Miami Center
Sat 12:44:08 PM 26.7428 -81.7831 199° South 179 206 2,200 -350 Descending Miami Center
Sat 12:45:08 PM 26.6986 -81.7950 194° South 174 200 1,800 -400 Descending Miami Center
Sat 12:47:00 PM 26.6125 -81.8354 204° Southwest  Level FlightAware Approximate
Sat 12:54:00 PM 26.5833 -81.8500 204° Southwest  Level FlightAware Approximate
Sat 12:55:00 PM 26.5866 -81.8633 North  Level Estimated
Sat 12:56:00 PM 26.5866 -81.8633 204° Southwest  Level Estimated
Sat 12:57:00 PM 26.5866 -81.8633 105° East  Level Estimated

Login

Don't have an account? Register now (free) for customized features, flight alerts, and more!